Time;durP1;ratioP1;P1;durP2;ratioP2;P2;SDS_P1;SDS_P2;PMS_P1;PMS_P2;Temp;Humidity;BMP_temperature;BMP_pressure;BME280_temperature;BME280_humidity;BME280_pressure;Samples;Min_cycle;Max_cycle;Signal;HPM_P1;HPM_P2
2022/07/25 00:01:10;;;;;;;10.02;7.57;;;;;;;16.66;96.88;98151.31;5127737;28;20027;-67
2022/07/25 00:03:36;;;;;;;11.90;7.45;;;;;;;16.50;96.84;98143.28;5127741;28;20382;-67
2022/07/25 00:06:01;;;;;;;10.05;7.55;;;;;;;16.38;97.33;98141.19;5127592;28;20088;-67
2022/07/25 00:08:26;;;;;;;13.90;8.75;;;;;;;16.47;98.57;98139.91;5127717;28;20019;-67
2022/07/25 00:10:52;;;;;;;12.63;8.73;;;;;;;16.45;98.68;98142.63;5127650;28;20023;-67
2022/07/25 00:13:17;;;;;;;15.45;8.82;;;;;;;16.33;98.83;98137.06;5127606;28;20072;-67
2022/07/25 00:15:42;;;;;;;14.40;8.10;;;;;;;16.34;99.23;98134.34;5127569;28;20079;-67
2022/07/25 00:18:08;;;;;;;15.88;8.63;;;;;;;16.27;99.22;98127.63;5127456;28;20019;-67
2022/07/25 00:20:33;;;;;;;10.65;8.02;;;;;;;16.31;98.57;98123.84;5127441;28;20028;-67
2022/07/25 00:22:58;;;;;;;15.55;8.75;;;;;;;16.14;100.00;98117.66;5127385;28;20061;-67
2022/07/25 00:25:24;;;;;;;10.98;8.00;;;;;;;16.25;99.81;98113.53;5127181;28;20051;-67
2022/07/25 00:27:50;;;;;;;11.30;8.45;;;;;;;16.28;99.25;98118.69;5127158;28;20047;-67
2022/07/25 00:30:16;;;;;;;12.35;8.18;;;;;;;16.24;98.97;98110.97;5127236;28;20051;-67
2022/07/25 00:32:41;;;;;;;11.63;8.00;;;;;;;16.13;98.74;98103.53;5127158;28;20319;-67
2022/07/25 00:35:07;;;;;;;11.40;7.97;;;;;;;16.18;99.34;98101.50;5127332;28;20027;-67
2022/07/25 00:37:32;;;;;;;12.88;8.55;;;;;;;16.22;99.41;98097.75;5127102;28;20056;-67
2022/07/25 00:39:58;;;;;;;12.73;8.98;;;;;;;16.18;99.22;98101.50;5127122;28;20019;-67
2022/07/25 00:42:23;;;;;;;11.75;8.25;;;;;;;16.19;99.42;98097.91;5127044;28;20038;-67
2022/07/25 00:44:49;;;;;;;11.10;7.82;;;;;;;16.12;99.19;98096.50;5126950;28;20185;-67
2022/07/25 00:47:15;;;;;;;12.68;8.40;;;;;;;16.14;99.37;98089.31;5127113;28;20300;-67
2022/07/25 00:49:40;;;;;;;10.63;7.53;;;;;;;15.99;98.49;98092.75;5126864;28;20043;-67
2022/07/25 00:52:06;;;;;;;12.75;8.38;;;;;;;16.01;100.00;98104.13;5125633;28;20065;-67
2022/07/25 00:54:32;;;;;;;11.23;8.15;;;;;;;16.05;99.66;98099.53;5126722;28;20023;-67
2022/07/25 00:56:57;;;;;;;13.13;8.50;;;;;;;16.03;99.69;98096.94;5126645;28;20068;-67
2022/07/25 00:59:23;;;;;;;13.98;9.20;;;;;;;16.02;99.54;98097.03;5126627;28;20083;-67
2022/07/25 01:01:48;;;;;;;12.27;8.52;;;;;;;16.00;99.59;98091.78;5126853;28;20027;-67
2022/07/25 01:04:15;;;;;;;11.68;7.82;;;;;;;15.91;98.91;98097.56;5126531;28;20020;-67
2022/07/25 01:06:40;;;;;;;13.05;9.57;;;;;;;15.82;99.53;98087.38;5126761;28;20027;-67
2022/07/25 01:09:06;;;;;;;15.82;8.80;;;;;;;15.80;99.70;98091.91;5126460;28;20019;-67
2022/07/25 01:11:32;;;;;;;12.02;8.68;;;;;;;15.83;99.82;98094.44;5126455;28;20020;-67
2022/07/25 01:13:57;;;;;;;12.95;8.35;;;;;;;15.84;100.00;98098.78;5126419;28;20031;-67
2022/07/25 01:16:23;;;;;;;11.00;8.05;;;;;;;15.72;99.71;98102.03;5126375;28;20039;-67
2022/07/25 01:18:48;;;;;;;11.52;8.75;;;;;;;15.74;100.00;98099.31;5126393;28;20319;-67
2022/07/25 01:21:13;;;;;;;14.80;8.52;;;;;;;15.66;100.00;98097.00;5126255;28;20098;-67
2022/07/25 01:23:39;;;;;;;10.25;7.80;;;;;;;15.46;100.00;98088.28;5126406;28;20064;-67
2022/07/25 01:26:05;;;;;;;13.00;7.93;;;;;;;15.42;100.00;98092.03;5126061;28;20027;-67
2022/07/25 01:28:30;;;;;;;10.68;7.78;;;;;;;15.47;100.00;98085.56;5125951;28;20046;-67
2022/07/25 01:30:56;;;;;;;10.85;8.20;;;;;;;15.52;100.00;98086.22;5126059;28;20023;-67
2022/07/25 01:33:21;;;;;;;12.30;8.05;;;;;;;15.45;100.00;98082.13;5126085;28;20091;-67
2022/07/25 01:35:48;;;;;;;11.38;7.57;;;;;;;15.41;100.00;98077.91;5125939;28;20023;-67
2022/07/25 01:38:14;;;;;;;12.50;7.95;;;;;;;15.50;100.00;98073.97;5125900;28;20030;-67
2022/07/25 01:40:40;;;;;;;13.68;8.63;;;;;;;15.52;100.00;98075.59;5125837;28;20027;-67
2022/07/25 01:43:07;;;;;;;17.73;8.18;;;;;;;15.50;100.00;98072.16;5125806;28;20027;-67
2022/07/25 01:45:33;;;;;;;11.25;8.20;;;;;;;15.51;100.00;98076.56;5125670;28;20433;-67
2022/07/25 01:47:58;;;;;;;11.02;7.63;;;;;;;15.39;99.88;98070.94;5125742;28;20024;-67
2022/07/25 01:50:24;;;;;;;12.15;8.32;;;;;;;15.39;100.00;98063.00;5125696;28;20064;-67
2022/07/25 01:52:50;;;;;;;13.00;8.73;;;;;;;15.43;100.00;98065.44;5125834;28;20307;-67
2022/07/25 01:55:16;;;;;;;12.13;8.57;;;;;;;15.43;100.00;98065.44;5125568;28;20016;-67
2022/07/25 01:57:41;;;;;;;12.27;8.60;;;;;;;15.49;100.00;98065.16;5125518;28;20085;-67
2022/07/25 02:00:09;;;;;;;9.50;7.47;;;;;;;15.39;100.00;98055.03;5125517;28;20027;-67
2022/07/25 02:02:35;;;;;;;12.60;8.57;;;;;;;15.47;100.00;98063.50;5125389;28;20078;-67
2022/07/25 02:05:00;;;;;;;13.32;8.32;;;;;;;15.43;100.00;98062.78;5125581;28;20184;-67
2022/07/25 02:07:25;;;;;;;12.55;8.43;;;;;;;15.32;100.00;98057.09;5125367;28;20024;-67
2022/07/25 02:09:51;;;;;;;12.55;8.27;;;;;;;15.29;100.00;98064.34;5125262;28;20042;-67
2022/07/25 02:12:16;;;;;;;12.30;8.35;;;;;;;15.31;100.00;98067.78;5125230;28;20091;-67
2022/07/25 02:14:42;;;;;;;10.77;8.45;;;;;;;15.20;100.00;98065.63;5125221;28;20023;-67
2022/07/25 02:17:07;;;;;;;12.27;8.27;;;;;;;15.16;100.00;98064.06;5125373;28;20042;-67
2022/07/25 02:19:33;;;;;;;11.55;7.97;;;;;;;15.17;100.00;98057.81;5125088;28;20019;-67
2022/07/25 02:21:59;;;;;;;12.63;8.18;;;;;;;15.14;100.00;98052.66;5125011;28;20086;-67
2022/07/25 02:24:24;;;;;;;10.98;8.10;;;;;;;15.12;100.00;98062.47;5125040;28;20035;-67
2022/07/25 02:26:49;;;;;;;11.57;8.18;;;;;;;15.13;100.00;98059.75;5124903;28;20041;-67
2022/07/25 02:29:15;;;;;;;12.23;8.38;;;;;;;15.11;100.00;98055.44;5125023;28;20066;-68
2022/07/25 02:31:40;;;;;;;12.20;8.77;;;;;;;15.02;100.00;98053.22;5124926;28;20027;-68
2022/07/25 02:34:05;;;;;;;13.38;8.95;;;;;;;14.83;100.00;98055.00;5124868;28;20020;-67
2022/07/25 02:36:31;;;;;;;12.05;8.25;;;;;;;14.84;100.00;98056.72;5124883;28;20020;-67
2022/07/25 02:38:56;;;;;;;12.00;8.25;;;;;;;14.88;100.00;98053.84;5124837;28;20083;-67
2022/07/25 02:41:21;;;;;;;14.27;9.25;;;;;;;14.91;100.00;98052.88;5124744;28;20019;-67
2022/07/25 02:43:47;;;;;;;21.40;8.50;;;;;;;14.80;100.00;98047.19;5124850;28;20026;-67
2022/07/25 02:46:12;;;;;;;12.57;7.82;;;;;;;14.82;100.00;98050.63;5124630;28;20027;-67
2022/07/25 02:48:38;;;;;;;14.98;8.52;;;;;;;14.90;100.00;98041.41;5124905;28;20019;-67
2022/07/25 02:51:03;;;;;;;12.82;8.43;;;;;;;14.90;100.00;98040.53;5124651;28;20057;-67
2022/07/25 02:53:29;;;;;;;12.23;9.15;;;;;;;14.78;100.00;98041.09;5124632;28;20019;-67
2022/07/25 02:55:54;;;;;;;12.23;8.68;;;;;;;14.88;100.00;98042.41;5124608;28;20050;-67
2022/07/25 02:58:19;;;;;;;13.15;8.90;;;;;;;14.94;100.00;98042.13;5124517;28;20019;-67
2022/07/25 03:00:45;;;;;;;13.05;7.95;;;;;;;14.92;100.00;98038.69;5124567;28;20331;-67
2022/07/25 03:03:11;;;;;;;10.82;8.70;;;;;;;14.84;100.00;98030.25;5124475;28;20330;-67
2022/07/25 03:05:37;;;;;;;11.52;8.68;;;;;;;14.75;100.00;98028.00;5124432;28;20027;-67
2022/07/25 03:08:02;;;;;;;14.80;8.57;;;;;;;14.68;100.00;98040.66;5124467;28;20020;-67
2022/07/25 03:10:29;;;;;;;13.00;8.60;;;;;;;14.67;100.00;98048.66;5124417;28;20019;-67
2022/07/25 03:12:54;;;;;;;12.18;8.02;;;;;;;14.70;100.00;98037.94;5124372;28;20015;-67
2022/07/25 03:15:20;;;;;;;10.35;7.93;;;;;;;14.70;100.00;98037.94;5126518;28;20061;-67
2022/07/25 03:17:45;;;;;;;12.02;8.40;;;;;;;14.50;100.00;98030.03;5128679;28;20019;-67
2022/07/25 03:20:10;;;;;;;11.32;8.32;;;;;;;14.54;100.00;98036.91;5128632;28;20023;-67
2022/07/25 03:22:36;;;;;;;14.38;8.50;;;;;;;14.57;100.00;98026.16;5128517;28;20100;-67
2022/07/25 03:25:02;;;;;;;12.70;8.85;;;;;;;14.64;100.00;98031.13;5128520;28;20015;-67
2022/07/25 03:27:27;;;;;;;14.88;8.95;;;;;;;14.66;100.00;98031.06;5128381;28;20031;-67
2022/07/25 03:29:53;;;;;;;12.07;8.10;;;;;;;14.60;100.00;98031.34;5128398;28;20070;-67
2022/07/25 03:32:18;;;;;;;12.73;8.68;;;;;;;14.61;100.00;98030.41;5128302;28;20068;-67
2022/07/25 03:34:44;;;;;;;23.33;9.10;;;;;;;14.54;100.00;98026.31;5128319;28;20061;-67
2022/07/25 03:37:09;;;;;;;14.85;8.95;;;;;;;14.46;100.00;98024.00;5128319;28;20027;-67
2022/07/25 03:39:35;;;;;;;19.60;9.60;;;;;;;14.49;100.00;98023.03;5128237;28;20028;-67
2022/07/25 03:42:00;;;;;;;12.25;9.13;;;;;;;14.40;100.00;98015.47;5128152;28;20023;-68
2022/07/25 03:44:25;;;;;;;14.15;8.82;;;;;;;14.45;100.00;98021.41;5128075;28;20023;-68
2022/07/25 03:46:51;;;;;;;12.80;8.85;;;;;;;14.35;100.00;98012.16;5128144;28;20058;-68
2022/07/25 03:49:17;;;;;;;17.20;9.50;;;;;;;14.43;100.00;98018.00;5128062;28;20129;-68
2022/07/25 03:51:43;;;;;;;13.10;9.40;;;;;;;14.39;100.00;98008.44;5128022;28;20024;-68
2022/07/25 03:54:12;;;;;;;17.50;8.85;;;;;;;14.27;100.00;98009.00;5127969;28;20027;-68
2022/07/25 03:56:37;;;;;;;13.55;8.63;;;;;;;14.28;100.00;98008.06;5127902;28;20023;-68
2022/07/25 03:59:04;;;;;;;14.63;9.07;;;;;;;14.29;100.00;98009.78;5128112;28;20119;-68
2022/07/25 04:01:29;;;;;;;13.88;9.20;;;;;;;14.32;100.00;98001.72;5127812;28;20319;-68
2022/07/25 04:03:55;;;;;;;12.10;9.07;;;;;;;14.39;100.00;98000.50;5127753;28;20024;-68
2022/07/25 04:06:22;;;;;;;19.08;9.75;;;;;;;14.40;100.00;97996.94;5127862;28;20027;-68
2022/07/25 04:08:47;;;;;;;11.52;8.30;;;;;;;14.42;100.00;97985.34;5127921;28;20064;-68
2022/07/25 04:11:13;;;;;;;17.00;9.85;;;;;;;14.40;100.00;97989.00;5127612;28;20019;-68
2022/07/25 04:13:38;;;;;;;13.45;8.85;;;;;;;14.44;100.00;97993.22;5127566;28;20120;-68
2022/07/25 04:16:04;;;;;;;14.65;9.18;;;;;;;14.45;100.00;97994.94;5127535;28;20016;-68
2022/07/25 04:18:29;;;;;;;15.55;9.45;;;;;;;14.45;100.00;98000.22;5127516;28;20029;-68
2022/07/25 04:20:55;;;;;;;11.88;8.93;;;;;;;14.49;100.00;98002.69;5127474;28;20027;-68
2022/07/25 04:23:21;;;;;;;12.30;8.57;;;;;;;14.50;100.00;97998.25;5127405;28;20219;-68
2022/07/25 04:25:46;;;;;;;16.67;9.50;;;;;;;14.55;100.00;97996.22;5127076;28;20020;-68
2022/07/25 04:28:11;;;;;;;17.13;9.52;;;;;;;14.55;100.00;98001.53;5127098;28;20031;-68
2022/07/25 04:30:37;;;;;;;16.38;9.57;;;;;;;14.55;100.00;97998.88;5127270;28;20047;-68
2022/07/25 04:33:03;;;;;;;15.77;9.65;;;;;;;14.66;100.00;97999.28;5127218;28;20261;-68
2022/07/25 04:35:28;;;;;;;19.00;9.57;;;;;;;14.65;100.00;97994.91;5127222;28;20043;-68
2022/07/25 04:37:53;;;;;;;11.32;9.02;;;;;;;14.68;100.00;97992.97;5127187;28;20019;-68
2022/07/25 04:40:19;;;;;;;13.57;9.07;;;;;;;14.70;100.00;97991.13;5127054;28;20334;-68
2022/07/25 04:42:44;;;;;;;14.90;8.52;;;;;;;14.74;100.00;97991.81;5127054;28;20023;-68
2022/07/25 04:45:10;;;;;;;12.95;8.82;;;;;;;14.80;100.00;97986.25;5126874;28;20031;-68
2022/07/25 04:47:35;;;;;;;14.68;9.40;;;;;;;14.80;100.00;97991.53;5126922;28;20023;-67
2022/07/25 04:50:01;;;;;;;15.00;9.10;;;;;;;14.98;100.00;97990.69;5126893;28;20334;-67
2022/07/25 04:52:26;;;;;;;13.18;9.45;;;;;;;15.15;100.00;97978.38;5126893;28;20019;-67
2022/07/25 04:54:52;;;;;;;12.30;8.65;;;;;;;15.11;100.00;97983.88;5126814;28;20022;-67
2022/07/25 04:57:17;;;;;;;11.43;8.70;;;;;;;15.79;98.09;97981.38;5126712;28;20315;-67
2022/07/25 04:59:43;;;;;;;13.80;8.20;;;;;;;17.49;89.68;97979.28;5126691;28;20050;-67
2022/07/25 05:02:09;;;;;;;12.02;7.22;;;;;;;18.91;82.16;97986.56;5126658;28;20024;-67
2022/07/25 05:04:34;;;;;;;12.75;7.00;;;;;;;19.86;77.35;97980.34;5126619;28;20239;-67
2022/07/25 05:06:59;;;;;;;14.57;7.00;;;;;;;20.52;74.84;97986.47;5126556;28;20027;-67
2022/07/25 05:09:26;;;;;;;13.07;7.22;;;;;;;21.01;72.18;97984.75;5126557;28;20281;-67
2022/07/25 05:11:52;;;;;;;11.75;7.00;;;;;;;21.45;71.00;97988.75;5126427;28;20049;-68
2022/07/25 05:14:17;;;;;;;9.63;6.13;;;;;;;21.92;69.28;97988.81;5126466;28;20023;-68
2022/07/25 05:16:42;;;;;;;16.40;6.85;;;;;;;22.37;68.03;97996.03;5126412;28;20117;-68
2022/07/25 05:19:08;;;;;;;9.15;6.20;;;;;;;22.66;67.01;98003.56;5126306;28;20064;-68
2022/07/25 05:21:33;;;;;;;9.25;5.90;;;;;;;22.98;66.53;98003.75;5126564;28;20015;-68
2022/07/25 05:23:59;;;;;;;12.18;6.93;;;;;;;23.32;65.25;97997.44;5126184;28;20019;-68
2022/07/25 05:26:24;;;;;;;9.93;6.18;;;;;;;23.65;64.19;97993.81;5126253;28;20192;-68
2022/07/25 05:28:50;;;;;;;9.07;7.03;;;;;;;23.97;62.73;97992.91;5125932;28;20111;-68
2022/07/25 05:31:15;;;;;;;7.53;5.95;;;;;;;23.74;62.71;97991.25;5126090;28;20027;-68
2022/07/25 05:33:41;;;;;;;11.40;6.50;;;;;;;24.12;62.71;97999.69;5125977;28;20043;-68
2022/07/25 05:36:07;;;;;;;8.70;6.22;;;;;;;24.11;63.57;97997.97;5126017;28;20019;-68
2022/07/25 05:38:33;;;;;;;8.55;6.28;;;;;;;24.79;60.82;97995.69;5125341;28;20034;-68
2022/07/25 05:40:59;;;;;;;10.02;6.97;;;;;;;25.25;59.65;98004.13;5125901;28;20020;-68
2022/07/25 05:43:24;;;;;;;8.43;6.20;;;;;;;25.50;59.26;97991.22;5125921;28;20327;-68
2022/07/25 05:45:50;;;;;;;7.90;6.25;;;;;;;26.11;57.67;98003.56;5125670;28;20080;-68
2022/07/25 05:48:16;;;;;;;8.60;5.70;;;;;;;26.48;57.19;98008.09;5125984;28;20099;-68
2022/07/25 05:50:42;;;;;;;11.30;6.30;;;;;;;26.70;56.41;98012.41;5125695;28;20023;-68
2022/07/25 05:53:07;;;;;;;11.57;6.50;;;;;;;26.90;57.34;98008.66;5125652;28;20091;-68
2022/07/25 05:55:32;;;;;;;8.15;5.97;;;;;;;26.94;56.13;98004.66;5125867;28;20060;-68
2022/07/25 05:57:58;;;;;;;10.52;6.90;;;;;;;27.06;54.21;97998.09;5125548;28;20046;-68
2022/07/25 06:00:24;;;;;;;10.32;6.82;;;;;;;27.61;53.95;97994.47;5125522;28;20091;-68
2022/07/25 06:02:49;;;;;;;6.63;5.93;;;;;;;27.61;54.44;97994.47;5125479;28;20024;-68
2022/07/25 06:05:14;;;;;;;8.85;5.70;;;;;;;28.00;53.96;98000.53;5125344;28;20320;-68
2022/07/25 06:07:40;;;;;;;7.20;5.85;;;;;;;28.61;52.04;98001.47;5125297;28;20023;-68
2022/07/25 06:10:06;;;;;;;6.85;5.80;;;;;;;28.75;52.52;97993.63;5125539;28;20417;-68
2022/07/25 06:12:32;;;;;;;10.02;6.32;;;;;;;28.64;50.98;97974.94;5125269;28;20024;-68
2022/07/25 06:14:58;;;;;;;10.20;6.53;;;;;;;29.10;51.99;97988.16;5125248;28;20027;-68
2022/07/25 06:17:24;;;;;;;8.45;6.40;;;;;;;29.30;51.10;97983.38;5125141;28;20020;-68
2022/07/25 06:19:49;;;;;;;7.25;5.80;;;;;;;29.54;51.01;97977.22;5125127;28;20019;-68
2022/07/25 06:22:15;;;;;;;12.35;6.80;;;;;;;29.54;50.02;97979.91;5125091;28;20313;-68
2022/07/25 06:24:40;;;;;;;8.25;5.90;;;;;;;30.29;50.32;97987.97;5125003;28;20023;-68
2022/07/25 06:27:07;;;;;;;9.32;6.65;;;;;;;30.57;49.10;97989.34;5124984;28;20219;-68
2022/07/25 06:29:32;;;;;;;11.75;6.78;;;;;;;30.94;46.79;97978.84;5124816;28;20080;-68
2022/07/25 06:31:58;;;;;;;7.78;6.88;;;;;;;30.52;48.56;97986.28;5124934;28;20019;-68
2022/07/25 06:34:23;;;;;;;9.00;6.22;;;;;;;31.67;47.53;97985.81;5124916;28;20023;-68
2022/07/25 06:36:48;;;;;;;9.23;6.35;;;;;;;32.12;47.07;97985.94;5124877;28;20023;-68
2022/07/25 06:39:14;;;;;;;7.80;5.95;;;;;;;32.52;46.25;97988.38;5124841;28;20019;-68
2022/07/25 06:41:39;;;;;;;9.38;6.93;;;;;;;32.20;46.83;97980.41;5124851;28;20252;-67
2022/07/25 06:44:04;;;;;;;7.60;6.10;;;;;;;31.79;46.19;97981.63;5124978;28;20061;-68
2022/07/25 06:46:31;;;;;;;9.70;7.00;;;;;;;32.32;44.87;97984.41;5124744;28;20023;-67
2022/07/25 06:48:58;;;;;;;8.18;5.82;;;;;;;33.05;45.55;97987.44;5124026;28;20027;-68
2022/07/25 06:51:24;;;;;;;9.02;6.03;;;;;;;33.49;44.66;97984.75;5124690;28;20026;-68
2022/07/25 06:53:49;;;;;;;8.55;5.80;;;;;;;33.88;45.31;97985.34;5124922;28;20019;-68
2022/07/25 06:56:15;;;;;;;11.10;6.13;;;;;;;34.69;43.37;97991.31;5124647;28;20342;-68
2022/07/25 06:58:40;;;;;;;9.98;6.22;;;;;;;34.43;43.36;97985.59;5124538;28;20028;-68
2022/07/25 07:01:06;;;;;;;11.18;6.28;;;;;;;35.32;41.98;97983.00;5124613;28;20043;-67
2022/07/25 07:03:36;;;;;;;10.52;6.32;;;;;;;35.53;40.56;97979.38;5124780;28;20023;-68
2022/07/25 07:06:03;;;;;;;11.25;6.05;;;;;;;36.09;40.64;97984.53;5124675;28;20241;-68
2022/07/25 07:08:28;;;;;;;11.82;6.72;;;;;;;36.32;40.21;97990.53;5124497;28;20057;-68
2022/07/25 07:10:53;;;;;;;11.90;5.88;;;;;;;36.70;39.76;97990.84;5124518;28;20024;-68
2022/07/25 07:13:20;;;;;;;10.93;6.70;;;;;;;37.07;36.01;97992.97;5124414;28;20026;-68
2022/07/25 07:15:48;;;;;;;17.85;6.50;;;;;;;37.24;35.26;97994.28;5124436;28;20016;-67
2022/07/25 07:18:17;;;;;;;8.45;6.40;;;;;;;37.54;35.29;97994.63;5124644;28;20087;-67
2022/07/25 07:20:43;;;;;;;8.65;6.75;;;;;;;37.35;33.80;97984.53;5124382;28;20019;-67
2022/07/25 07:23:09;;;;;;;8.75;7.15;;;;;;;37.46;34.96;97983.88;5124410;28;20027;-67
2022/07/25 07:25:34;;;;;;;8.85;6.95;;;;;;;37.66;33.78;97987.47;5124501;28;20087;-67
2022/07/25 07:28:00;;;;;;;10.70;6.78;;;;;;;37.91;33.93;97982.94;5124062;28;20311;-67
2022/07/25 07:30:26;;;;;;;13.15;7.43;;;;;;;38.24;33.79;98000.16;5124340;28;20106;-67
2022/07/25 07:32:51;;;;;;;7.65;6.63;;;;;;;37.92;32.82;97995.59;5124257;28;20019;-67
2022/07/25 07:35:18;;;;;;;9.52;6.97;;;;;;;38.15;33.08;98004.25;5124244;28;20016;-67
2022/07/25 07:37:44;;;;;;;11.98;7.25;;;;;;;38.46;32.91;98002.38;5124212;28;20051;-67
2022/07/25 07:40:12;;;;;;;11.55;7.55;;;;;;;38.58;32.77;98000.63;5124241;28;20023;-67
2022/07/25 07:42:39;;;;;;;11.32;7.28;;;;;;;38.26;31.78;97987.03;5124148;28;20016;-67
2022/07/25 07:45:14;;;;;;;8.88;7.95;;;;;;;38.21;32.74;97984.94;5124161;28;20047;-67
2022/07/25 07:47:39;;;;;;;8.73;7.63;;;;;;;38.22;32.97;97977.53;5124392;28;20207;-67
2022/07/25 07:50:05;;;;;;;15.68;7.80;;;;;;;38.50;32.64;97986.28;5124351;28;20016;-67
2022/07/25 07:52:31;;;;;;;12.07;8.05;;;;;;;38.25;33.21;97982.63;5123972;28;20028;-67
2022/07/25 07:57:40;;;;;;;12.43;7.88;;;;;;;38.92;32.38;97984.72;5124034;28;20039;-67
2022/07/25 08:00:06;;;;;;;9.10;7.82;;;;;;;38.68;32.16;97980.88;5124037;28;20031;-67
2022/07/25 08:02:32;;;;;;;8.98;8.07;;;;;;;38.17;32.66;97969.97;5127986;28;20267;-67
2022/07/25 08:04:57;;;;;;;10.23;7.75;;;;;;;38.54;32.53;97982.91;5127756;28;20016;-67
2022/07/25 08:07:23;;;;;;;8.43;7.50;;;;;;;38.78;32.14;97980.41;5127668;28;20090;-67
2022/07/25 08:09:48;;;;;;;11.90;7.97;;;;;;;38.61;32.85;97977.34;5127679;28;20023;-67
2022/07/25 08:12:13;;;;;;;11.80;8.32;;;;;;;38.99;32.36;97972.63;5127632;28;20087;-67
2022/07/25 08:14:39;;;;;;;11.50;8.00;;;;;;;38.97;32.17;97972.00;5127591;28;20037;-67
2022/07/25 08:17:04;;;;;;;13.85;8.82;;;;;;;38.74;32.17;97969.84;5127596;28;20082;-67
2022/07/25 08:19:30;;;;;;;9.27;8.18;;;;;;;39.11;32.35;97968.09;5127518;28;20026;-67
2022/07/25 08:21:55;;;;;;;8.52;7.65;;;;;;;39.53;31.75;97970.00;5127531;28;20215;-67
2022/07/25 08:24:21;;;;;;;11.80;7.55;;;;;;;39.25;32.10;97966.88;5127289;28;20023;-67
2022/07/25 08:26:46;;;;;;;10.45;8.13;;;;;;;38.52;32.68;97965.75;5127292;28;20019;-67
2022/07/25 08:29:11;;;;;;;12.10;8.35;;;;;;;39.00;31.61;97971.56;5127232;28;20047;-67
2022/07/25 08:31:37;;;;;;;12.43;8.27;;;;;;;38.22;32.29;97966.56;5127287;28;20188;-67
2022/07/25 08:34:02;;;;;;;10.13;8.45;;;;;;;39.40;31.21;97967.41;5127295;28;20019;-67
2022/07/25 08:36:27;;;;;;;11.40;7.93;;;;;;;39.93;32.53;97956.66;5127470;28;20047;-67
2022/07/25 08:38:53;;;;;;;9.60;7.90;;;;;;;39.79;30.72;97950.41;5127109;28;20019;-67
2022/07/25 08:41:18;;;;;;;9.55;7.70;;;;;;;39.74;31.35;97950.28;5127085;28;20060;-67
2022/07/25 08:43:46;;;;;;;12.13;8.25;;;;;;;40.36;29.97;97949.06;5127035;28;20019;-67
2022/07/25 08:46:14;;;;;;;10.32;7.80;;;;;;;39.96;29.35;97935.00;5126914;28;20069;-67
2022/07/25 08:48:40;;;;;;;12.32;7.50;;;;;;;40.29;30.57;97954.72;5126837;28;20091;-67
2022/07/25 08:51:07;;;;;;;11.10;7.40;;;;;;;40.69;30.58;97956.91;5126904;28;20220;-67
2022/07/25 08:53:32;;;;;;;9.80;7.40;;;;;;;39.64;30.23;97943.63;5126797;28;20015;-67
2022/07/25 08:55:58;;;;;;;8.32;7.20;;;;;;;40.72;30.40;97956.44;5126953;28;20023;-67
2022/07/25 08:58:23;;;;;;;13.10;7.60;;;;;;;39.22;31.30;97948.06;5126727;28;20031;-67
2022/07/25 09:00:49;;;;;;;11.77;8.05;;;;;;;38.54;32.26;97943.53;5126746;28;20030;-67
2022/07/25 09:03:14;;;;;;;10.60;8.07;;;;;;;39.39;32.19;97943.69;5126753;28;20211;-67
2022/07/25 09:05:40;;;;;;;11.45;7.57;;;;;;;39.18;32.74;97938.56;5126613;28;20016;-67
2022/07/25 09:08:11;;;;;;;10.57;7.88;;;;;;;38.24;32.22;97932.25;5126563;28;20024;-67
2022/07/25 09:10:36;;;;;;;;;;;;;;;37.04;34.13;97929.44;5126969;28;20054;-67
2022/07/25 09:13:12;;;;;;;11.25;7.50;;;;;;;36.38;35.22;97921.16;5125455;28;19910;-68
2022/07/25 09:15:59;;;;;;;10.02;7.68;;;;;;;36.54;35.96;97929.00;5126470;28;20092;-67
2022/07/25 09:18:26;;;;;;;10.80;7.13;;;;;;;37.31;34.32;97931.13;5126107;28;20032;-67
2022/07/25 09:20:54;;;;;;;8.57;7.22;;;;;;;37.76;33.45;97932.91;5126522;28;20319;-67
2022/07/25 09:23:30;;;;;;;8.35;7.20;;;;;;;38.12;34.18;97941.44;5126475;28;20023;-67
2022/07/25 09:26:05;;;;;;;9.55;6.55;;;;;;;38.07;32.22;97932.97;5126312;28;20029;-67
2022/07/25 09:28:32;;;;;;;11.90;7.80;;;;;;;37.52;33.42;97926.19;5125998;28;20035;-68
2022/07/25 09:31:00;;;;;;;11.55;6.35;;;;;;;37.73;32.98;97938.81;5126371;28;20043;-67
2022/07/25 09:33:27;;;;;;;11.82;6.97;;;;;;;38.05;32.52;97926.88;5126041;28;20027;-67
2022/07/25 09:35:54;;;;;;;8.52;6.60;;;;;;;38.00;32.54;97934.91;5125988;28;20061;-67
2022/07/25 09:38:21;;;;;;;19.52;7.35;;;;;;;37.85;32.07;97926.09;5125956;28;20029;-67
2022/07/25 09:40:58;;;;;;;7.68;6.68;;;;;;;38.29;32.32;97934.34;5125930;28;20031;-67
2022/07/25 09:43:41;;;;;;;7.57;6.32;;;;;;;38.54;31.75;97938.03;5126138;28;20376;-67
2022/07/25 09:46:08;;;;;;;10.13;7.13;;;;;;;37.94;31.85;97935.78;5125710;28;20025;-67
2022/07/25 09:48:35;;;;;;;12.35;7.15;;;;;;;37.67;31.69;97931.47;5125762;28;20200;-67
2022/07/25 09:51:01;;;;;;;10.75;6.68;;;;;;;38.31;29.77;97937.75;5125726;28;20249;-68
2022/07/25 09:53:26;;;;;;;8.75;6.85;;;;;;;38.99;30.81;97947.84;5125794;28;20023;-68
2022/07/25 09:55:53;;;;;;;8.80;6.25;;;;;;;38.95;31.03;97951.25;5125641;28;20369;-67
2022/07/25 09:58:19;;;;;;;9.75;5.93;;;;;;;38.39;31.64;97946.56;5125810;28;20023;-67
2022/07/25 10:00:45;;;;;;;8.25;5.68;;;;;;;38.18;29.43;97929.56;5125557;28;20056;-68
2022/07/25 10:03:37;;;;;;;7.10;5.68;;;;;;;37.95;31.95;97934.72;5125529;28;20020;-68
2022/07/25 10:06:09;;;;;;;7.00;5.75;;;;;;;37.77;31.62;97929.94;5125414;28;20027;-68
2022/07/25 10:08:36;;;;;;;10.25;5.72;;;;;;;37.57;31.57;97929.13;5125400;28;20023;-68
2022/07/25 10:11:04;;;;;;;43.00;7.20;;;;;;;37.57;32.60;97926.41;5125393;28;20058;-68
2022/07/25 10:13:34;;;;;;;11.07;6.70;;;;;;;36.92;33.48;97921.03;5125545;28;20216;-68
2022/07/25 10:16:00;;;;;;;10.68;6.28;;;;;;;36.37;33.61;97922.22;5125384;28;20020;-68
2022/07/25 10:18:28;;;;;;;11.30;6.40;;;;;;;36.03;35.75;97921.50;5125192;28;20054;-68
2022/07/25 10:21:07;;;;;;;8.32;6.03;;;;;;;36.01;35.35;97931.81;5125151;28;20034;-68
2022/07/25 10:23:33;;;;;;;9.30;5.53;;;;;;;36.41;33.62;97928.97;5124943;28;20027;-68
2022/07/25 10:26:07;;;;;;;7.80;5.85;;;;;;;36.69;33.42;97929.63;5124971;28;20095;-68
2022/07/25 10:28:47;;;;;;;9.55;6.53;;;;;;;37.28;32.76;97929.66;5124901;28;20110;-68
2022/07/25 10:31:24;;;;;;;8.93;5.85;;;;;;;38.04;32.80;97937.00;5125007;28;20024;-68
2022/07/25 10:33:51;;;;;;;7.88;6.03;;;;;;;37.53;32.28;97916.91;5125245;28;20034;-68
2022/07/25 10:36:19;;;;;;;9.90;5.93;;;;;;;38.05;32.37;97926.88;5124921;28;20020;-68
2022/07/25 10:38:45;;;;;;;9.65;5.97;;;;;;;38.68;32.24;97928.59;5124896;28;20042;-68
2022/07/25 10:41:12;;;;;;;8.27;6.18;;;;;;;39.24;31.94;97926.66;5124846;28;20337;-67
2022/07/25 10:43:39;;;;;;;7.85;6.05;;;;;;;38.84;31.37;97917.03;5124834;28;20223;-67
2022/07/25 10:46:13;;;;;;;8.90;5.93;;;;;;;39.27;31.43;97928.94;5124670;28;20061;-67
2022/07/25 10:48:39;;;;;;;9.43;6.60;;;;;;;39.31;30.35;97923.81;5124780;28;20043;-67
2022/07/25 10:51:10;;;;;;;14.02;5.82;;;;;;;39.19;29.84;97931.16;5124815;28;20023;-67
2022/07/25 10:53:45;;;;;;;12.60;6.65;;;;;;;39.12;30.04;97905.59;5124697;28;20043;-67
2022/07/25 10:56:21;;;;;;;12.52;6.68;;;;;;;38.07;31.47;97909.09;5124641;28;20015;-69
2022/07/25 10:58:57;;;;;;;8.32;6.45;;;;;;;37.25;32.06;97894.38;5124587;28;20024;-68
2022/07/25 11:01:32;;;;;;;14.20;6.30;;;;;;;36.51;33.46;97893.75;5124549;28;20031;-68
2022/07/25 11:04:00;;;;;;;9.85;6.68;;;;;;;36.76;34.64;97903.06;5124593;28;20144;-68
2022/07/25 11:06:37;;;;;;;12.68;6.25;;;;;;;36.86;33.26;97908.97;5124438;28;20031;-68
2022/07/25 11:09:18;;;;;;;9.40;6.30;;;;;;;36.37;34.04;97902.19;5124769;28;20055;-68
2022/07/25 11:11:50;;;;;;;12.00;6.43;;;;;;;35.67;35.27;97899.84;5124463;28;20023;-68
2022/07/25 11:14:17;;;;;;;10.05;6.38;;;;;;;35.74;35.30;97897.97;5124512;28;20019;-68
2022/07/25 11:16:44;;;;;;;11.70;6.32;;;;;;;35.79;34.75;97909.16;5124513;28;20265;-68
2022/07/25 11:19:25;;;;;;;9.00;6.72;;;;;;;36.36;35.76;97917.81;5124367;28;20016;-68
2022/07/25 11:22:03;;;;;;;8.57;5.97;;;;;;;37.14;34.47;97916.13;5124373;28;20315;-67
2022/07/25 11:24:35;;;;;;;14.65;6.30;;;;;;;37.65;33.03;97915.22;5124401;28;20019;-68